CheckWX is a tool to help pilots better visualize weather data.  It is not intended as a substitute for an official pre-flight weather briefing.

19:01:55 UTC

EGXS METAR
RAF Swinderby Airport
Swinderby, United Kingdom
Current

1 hour ago

EGXS 191750Z AUTO 18008KT 9999 // BKN050/// BKN120/// 08/04 Q1015
Observed
Feb-19 @ 17:50 UTC
Wind
  • 180° at 8 KTS
Visibility
10,000+ meters
Flight Rules
VFR
Cloud Levels
  • Broken at 5,000' AGL
  • Broken at 12,000' AGL
Temperature
C / 46°F
Dewpoint
C / 39°F
Humidity
76%
Altimeter
29.97" Hg
Pressure
1014.92 hPa
Previous

2 hours ago

EGXS 191650Z AUTO 20009KT 9999 // BKN120/// 08/04 Q1015
Observed
Feb-19 @ 16:50 UTC
Wind
  • 200° at 9 KTS
Visibility
10,000+ meters
Flight Rules
VFR
Cloud Levels
  • Broken at 12,000' AGL
Temperature
C / 46°F
Dewpoint
C / 39°F
Humidity
76%
Altimeter
29.97" Hg
Pressure
1014.92 hPa
Previous

3 hours ago

EGXS 191550Z AUTO 22013KT 9999 // BKN043/// 10/03 Q1015
Observed
Feb-19 @ 15:50 UTC
Wind
  • 220° at 13 KTS
Visibility
10,000+ meters
Flight Rules
VFR
Cloud Levels
  • Broken at 4,300' AGL
Temperature
10°C / 50°F
Dewpoint
C / 37°F
Humidity
62%
Altimeter
29.97" Hg
Pressure
1014.92 hPa